sensor_id;sensor_type;location;lat;lon;timestamp;P1;durP1;ratioP1;P2;durP2;ratioP2
20245;SDS011;10281;54.406;18.556;2023-04-16T00:00:45;6.20;;;5.33;;
20245;SDS011;10281;54.406;18.556;2023-04-16T00:03:13;6.83;;;5.83;;
20245;SDS011;10281;54.406;18.556;2023-04-16T00:05:40;6.27;;;5.67;;
20245;SDS011;10281;54.406;18.556;2023-04-16T00:08:07;7.90;;;5.47;;
20245;SDS011;10281;54.406;18.556;2023-04-16T00:10:33;6.20;;;5.57;;
20245;SDS011;10281;54.406;18.556;2023-04-16T00:13:00;7.70;;;5.67;;
20245;SDS011;10281;54.406;18.556;2023-04-16T00:15:27;6.43;;;5.77;;
20245;SDS011;10281;54.406;18.556;2023-04-16T00:17:53;7.40;;;5.70;;
20245;SDS011;10281;54.406;18.556;2023-04-16T00:20:20;6.50;;;5.13;;
20245;SDS011;10281;54.406;18.556;2023-04-16T00:22:46;7.20;;;5.27;;
20245;SDS011;10281;54.406;18.556;2023-04-16T00:25:13;7.07;;;5.00;;
20245;SDS011;10281;54.406;18.556;2023-04-16T00:27:40;6.83;;;5.20;;
20245;SDS011;10281;54.406;18.556;2023-04-16T00:30:07;6.43;;;5.50;;
20245;SDS011;10281;54.406;18.556;2023-04-16T00:32:34;5.93;;;5.20;;
20245;SDS011;10281;54.406;18.556;2023-04-16T00:35:00;7.27;;;5.43;;
20245;SDS011;10281;54.406;18.556;2023-04-16T00:37:27;6.23;;;5.43;;
20245;SDS011;10281;54.406;18.556;2023-04-16T00:39:53;8.23;;;5.50;;
20245;SDS011;10281;54.406;18.556;2023-04-16T00:42:20;9.97;;;7.37;;
20245;SDS011;10281;54.406;18.556;2023-04-16T00:44:47;6.73;;;5.30;;
20245;SDS011;10281;54.406;18.556;2023-04-16T00:47:13;7.70;;;5.67;;
20245;SDS011;10281;54.406;18.556;2023-04-16T00:49:41;5.30;;;4.70;;
20245;SDS011;10281;54.406;18.556;2023-04-16T00:52:07;6.63;;;5.17;;
20245;SDS011;10281;54.406;18.556;2023-04-16T00:54:36;5.73;;;4.87;;
20245;SDS011;10281;54.406;18.556;2023-04-16T00:57:04;7.07;;;5.37;;
20245;SDS011;10281;54.406;18.556;2023-04-16T00:59:31;6.13;;;5.20;;
20245;SDS011;10281;54.406;18.556;2023-04-16T01:01:58;6.33;;;5.20;;
20245;SDS011;10281;54.406;18.556;2023-04-16T01:04:24;7.53;;;5.50;;
20245;SDS011;10281;54.406;18.556;2023-04-16T01:06:51;5.73;;;5.13;;
20245;SDS011;10281;54.406;18.556;2023-04-16T01:09:18;6.07;;;5.47;;
20245;SDS011;10281;54.406;18.556;2023-04-16T01:11:44;6.80;;;6.03;;
20245;SDS011;10281;54.406;18.556;2023-04-16T01:14:11;9.37;;;5.83;;
20245;SDS011;10281;54.406;18.556;2023-04-16T01:16:38;6.77;;;5.90;;
20245;SDS011;10281;54.406;18.556;2023-04-16T01:19:04;8.23;;;6.03;;
20245;SDS011;10281;54.406;18.556;2023-04-16T01:21:31;7.00;;;6.20;;
20245;SDS011;10281;54.406;18.556;2023-04-16T01:24:01;8.30;;;6.23;;
20245;SDS011;10281;54.406;18.556;2023-04-16T01:26:28;6.77;;;5.73;;
20245;SDS011;10281;54.406;18.556;2023-04-16T01:28:55;6.97;;;6.03;;
20245;SDS011;10281;54.406;18.556;2023-04-16T01:31:22;5.93;;;5.37;;
20245;SDS011;10281;54.406;18.556;2023-04-16T01:33:49;7.17;;;6.47;;
20245;SDS011;10281;54.406;18.556;2023-04-16T01:36:15;7.73;;;5.83;;
20245;SDS011;10281;54.406;18.556;2023-04-16T01:38:42;8.33;;;5.87;;
20245;SDS011;10281;54.406;18.556;2023-04-16T01:41:09;7.53;;;6.37;;
20245;SDS011;10281;54.406;18.556;2023-04-16T01:43:35;7.23;;;6.13;;
20245;SDS011;10281;54.406;18.556;2023-04-16T01:46:14;7.43;;;6.50;;
20245;SDS011;10281;54.406;18.556;2023-04-16T01:48:45;8.10;;;6.50;;
20245;SDS011;10281;54.406;18.556;2023-04-16T01:51:12;9.57;;;7.00;;
20245;SDS011;10281;54.406;18.556;2023-04-16T01:53:38;7.47;;;6.60;;
20245;SDS011;10281;54.406;18.556;2023-04-16T01:56:05;8.93;;;6.30;;
20245;SDS011;10281;54.406;18.556;2023-04-16T01:58:32;7.73;;;6.13;;
20245;SDS011;10281;54.406;18.556;2023-04-16T02:00:59;7.83;;;6.37;;
20245;SDS011;10281;54.406;18.556;2023-04-16T02:03:26;7.90;;;6.67;;
20245;SDS011;10281;54.406;18.556;2023-04-16T02:05:53;7.53;;;6.70;;
20245;SDS011;10281;54.406;18.556;2023-04-16T02:08:19;7.57;;;6.40;;
20245;SDS011;10281;54.406;18.556;2023-04-16T02:10:46;7.77;;;6.13;;
20245;SDS011;10281;54.406;18.556;2023-04-16T02:13:14;7.30;;;6.40;;
20245;SDS011;10281;54.406;18.556;2023-04-16T02:15:46;9.87;;;6.80;;
20245;SDS011;10281;54.406;18.556;2023-04-16T02:18:13;8.00;;;6.50;;
20245;SDS011;10281;54.406;18.556;2023-04-16T02:20:42;10.53;;;7.50;;
20245;SDS011;10281;54.406;18.556;2023-04-16T02:23:10;7.83;;;6.77;;
20245;SDS011;10281;54.406;18.556;2023-04-16T02:25:37;11.67;;;7.50;;
20245;SDS011;10281;54.406;18.556;2023-04-16T02:28:06;8.50;;;7.37;;
20245;SDS011;10281;54.406;18.556;2023-04-16T02:30:34;9.57;;;7.20;;
20245;SDS011;10281;54.406;18.556;2023-04-16T02:33:02;9.17;;;7.23;;
20245;SDS011;10281;54.406;18.556;2023-04-16T02:35:33;9.33;;;7.23;;
20245;SDS011;10281;54.406;18.556;2023-04-16T02:38:01;9.93;;;7.93;;
20245;SDS011;10281;54.406;18.556;2023-04-16T02:40:29;9.50;;;8.33;;
20245;SDS011;10281;54.406;18.556;2023-04-16T02:42:56;11.17;;;8.63;;
20245;SDS011;10281;54.406;18.556;2023-04-16T02:45:23;12.13;;;8.33;;
20245;SDS011;10281;54.406;18.556;2023-04-16T02:47:50;10.70;;;8.20;;
20245;SDS011;10281;54.406;18.556;2023-04-16T02:50:17;10.83;;;9.00;;
20245;SDS011;10281;54.406;18.556;2023-04-16T02:52:43;10.37;;;8.43;;
20245;SDS011;10281;54.406;18.556;2023-04-16T02:55:10;13.57;;;9.07;;
20245;SDS011;10281;54.406;18.556;2023-04-16T02:57:37;11.90;;;9.43;;
20245;SDS011;10281;54.406;18.556;2023-04-16T03:00:04;10.70;;;9.40;;
20245;SDS011;10281;54.406;18.556;2023-04-16T03:02:31;10.50;;;9.17;;
20245;SDS011;10281;54.406;18.556;2023-04-16T03:04:57;10.77;;;8.80;;
20245;SDS011;10281;54.406;18.556;2023-04-16T03:07:24;14.60;;;9.73;;
20245;SDS011;10281;54.406;18.556;2023-04-16T03:09:51;10.87;;;9.57;;
20245;SDS011;10281;54.406;18.556;2023-04-16T03:12:17;12.30;;;9.43;;
20245;SDS011;10281;54.406;18.556;2023-04-16T03:14:44;13.47;;;9.57;;
20245;SDS011;10281;54.406;18.556;2023-04-16T03:17:11;13.57;;;9.70;;
20245;SDS011;10281;54.406;18.556;2023-04-16T03:19:37;12.40;;;9.27;;
20245;SDS011;10281;54.406;18.556;2023-04-16T03:22:04;11.70;;;9.70;;
20245;SDS011;10281;54.406;18.556;2023-04-16T03:24:31;12.70;;;9.83;;
20245;SDS011;10281;54.406;18.556;2023-04-16T03:26:57;14.57;;;11.20;;
20245;SDS011;10281;54.406;18.556;2023-04-16T03:29:24;12.90;;;9.57;;
20245;SDS011;10281;54.406;18.556;2023-04-16T03:31:51;11.33;;;8.93;;
20245;SDS011;10281;54.406;18.556;2023-04-16T03:34:18;11.47;;;9.40;;
20245;SDS011;10281;54.406;18.556;2023-04-16T03:36:45;13.63;;;9.83;;
20245;SDS011;10281;54.406;18.556;2023-04-16T03:39:12;12.20;;;9.13;;
20245;SDS011;10281;54.406;18.556;2023-04-16T03:41:38;10.23;;;9.13;;
20245;SDS011;10281;54.406;18.556;2023-04-16T03:44:05;12.43;;;9.50;;
20245;SDS011;10281;54.406;18.556;2023-04-16T03:46:31;13.67;;;9.83;;
20245;SDS011;10281;54.406;18.556;2023-04-16T03:48:58;12.20;;;9.10;;
20245;SDS011;10281;54.406;18.556;2023-04-16T03:51:24;10.80;;;9.20;;
20245;SDS011;10281;54.406;18.556;2023-04-16T03:53:51;11.87;;;9.07;;
20245;SDS011;10281;54.406;18.556;2023-04-16T03:56:18;11.33;;;9.57;;
20245;SDS011;10281;54.406;18.556;2023-04-16T03:58:45;12.13;;;9.50;;
20245;SDS011;10281;54.406;18.556;2023-04-16T04:01:11;14.70;;;8.40;;
20245;SDS011;10281;54.406;18.556;2023-04-16T04:03:38;11.90;;;8.23;;
20245;SDS011;10281;54.406;18.556;2023-04-16T04:06:06;12.10;;;9.40;;
20245;SDS011;10281;54.406;18.556;2023-04-16T04:08:33;10.70;;;8.77;;
20245;SDS011;10281;54.406;18.556;2023-04-16T04:11:00;11.97;;;9.40;;
20245;SDS011;10281;54.406;18.556;2023-04-16T04:13:26;11.57;;;8.70;;
20245;SDS011;10281;54.406;18.556;2023-04-16T04:15:53;9.83;;;8.40;;
20245;SDS011;10281;54.406;18.556;2023-04-16T04:18:19;14.87;;;9.00;;
20245;SDS011;10281;54.406;18.556;2023-04-16T04:20:46;10.97;;;9.07;;
20245;SDS011;10281;54.406;18.556;2023-04-16T04:23:13;9.03;;;8.13;;
20245;SDS011;10281;54.406;18.556;2023-04-16T04:25:40;10.87;;;8.70;;
20245;SDS011;10281;54.406;18.556;2023-04-16T04:28:06;10.80;;;8.50;;
20245;SDS011;10281;54.406;18.556;2023-04-16T04:30:33;12.07;;;8.90;;
20245;SDS011;10281;54.406;18.556;2023-04-16T04:33:00;11.33;;;8.97;;
20245;SDS011;10281;54.406;18.556;2023-04-16T04:35:27;11.73;;;9.23;;
20245;SDS011;10281;54.406;18.556;2023-04-16T04:37:53;13.17;;;9.70;;
20245;SDS011;10281;54.406;18.556;2023-04-16T04:40:20;11.77;;;8.93;;
20245;SDS011;10281;54.406;18.556;2023-04-16T04:42:47;12.47;;;9.63;;
20245;SDS011;10281;54.406;18.556;2023-04-16T04:45:13;12.53;;;9.80;;
20245;SDS011;10281;54.406;18.556;2023-04-16T04:47:40;11.17;;;9.50;;
20245;SDS011;10281;54.406;18.556;2023-04-16T04:50:07;11.33;;;9.83;;
20245;SDS011;10281;54.406;18.556;2023-04-16T04:52:34;13.17;;;9.47;;
20245;SDS011;10281;54.406;18.556;2023-04-16T04:55:01;11.30;;;9.17;;
20245;SDS011;10281;54.406;18.556;2023-04-16T04:57:28;10.23;;;8.07;;
20245;SDS011;10281;54.406;18.556;2023-04-16T04:59:54;10.97;;;9.03;;
20245;SDS011;10281;54.406;18.556;2023-04-16T05:02:21;10.83;;;8.93;;
20245;SDS011;10281;54.406;18.556;2023-04-16T05:04:48;9.87;;;7.87;;
20245;SDS011;10281;54.406;18.556;2023-04-16T05:07:14;10.50;;;9.23;;
20245;SDS011;10281;54.406;18.556;2023-04-16T05:09:41;13.03;;;9.60;;
20245;SDS011;10281;54.406;18.556;2023-04-16T05:12:08;11.97;;;9.33;;
20245;SDS011;10281;54.406;18.556;2023-04-16T05:14:34;11.33;;;9.00;;
20245;SDS011;10281;54.406;18.556;2023-04-16T05:17:01;13.10;;;9.50;;
20245;SDS011;10281;54.406;18.556;2023-04-16T05:19:27;11.40;;;9.10;;
20245;SDS011;10281;54.406;18.556;2023-04-16T05:21:54;12.27;;;9.17;;
20245;SDS011;10281;54.406;18.556;2023-04-16T05:24:21;10.23;;;9.00;;
20245;SDS011;10281;54.406;18.556;2023-04-16T05:26:48;15.10;;;10.17;;
20245;SDS011;10281;54.406;18.556;2023-04-16T05:29:14;12.10;;;9.47;;
20245;SDS011;10281;54.406;18.556;2023-04-16T05:31:41;11.53;;;9.10;;
20245;SDS011;10281;54.406;18.556;2023-04-16T05:34:07;11.73;;;9.47;;
20245;SDS011;10281;54.406;18.556;2023-04-16T05:36:34;11.23;;;9.70;;
20245;SDS011;10281;54.406;18.556;2023-04-16T05:39:01;13.53;;;10.23;;
20245;SDS011;10281;54.406;18.556;2023-04-16T05:41:27;12.77;;;9.77;;
20245;SDS011;10281;54.406;18.556;2023-04-16T05:43:54;11.77;;;9.40;;
20245;SDS011;10281;54.406;18.556;2023-04-16T05:46:21;11.83;;;9.97;;
20245;SDS011;10281;54.406;18.556;2023-04-16T05:48:47;12.10;;;9.67;;
20245;SDS011;10281;54.406;18.556;2023-04-16T05:51:14;12.17;;;9.77;;
20245;SDS011;10281;54.406;18.556;2023-04-16T05:53:40;11.00;;;9.67;;
20245;SDS011;10281;54.406;18.556;2023-04-16T05:56:07;12.47;;;9.57;;
20245;SDS011;10281;54.406;18.556;2023-04-16T05:58:34;11.50;;;9.80;;
20245;SDS011;10281;54.406;18.556;2023-04-16T06:01:00;12.57;;;9.60;;
20245;SDS011;10281;54.406;18.556;2023-04-16T06:03:28;15.13;;;10.37;;
20245;SDS011;10281;54.406;18.556;2023-04-16T06:05:54;11.37;;;9.70;;
20245;SDS011;10281;54.406;18.556;2023-04-16T06:08:21;13.10;;;9.90;;
20245;SDS011;10281;54.406;18.556;2023-04-16T06:10:47;12.50;;;9.97;;
20245;SDS011;10281;54.406;18.556;2023-04-16T06:13:14;12.20;;;9.47;;
20245;SDS011;10281;54.406;18.556;2023-04-16T06:15:41;14.40;;;9.80;;
20245;SDS011;10281;54.406;18.556;2023-04-16T06:18:07;11.73;;;9.83;;
20245;SDS011;10281;54.406;18.556;2023-04-16T06:20:34;15.10;;;10.00;;
20245;SDS011;10281;54.406;18.556;2023-04-16T06:23:01;11.80;;;9.10;;
20245;SDS011;10281;54.406;18.556;2023-04-16T06:25:27;12.77;;;10.47;;
20245;SDS011;10281;54.406;18.556;2023-04-16T06:27:54;10.13;;;9.07;;
20245;SDS011;10281;54.406;18.556;2023-04-16T06:30:21;14.90;;;9.43;;
20245;SDS011;10281;54.406;18.556;2023-04-16T06:32:47;11.47;;;9.50;;
20245;SDS011;10281;54.406;18.556;2023-04-16T06:35:14;11.83;;;9.70;;
20245;SDS011;10281;54.406;18.556;2023-04-16T06:37:41;10.67;;;8.97;;
20245;SDS011;10281;54.406;18.556;2023-04-16T06:40:08;11.07;;;8.80;;
20245;SDS011;10281;54.406;18.556;2023-04-16T06:42:35;10.23;;;8.37;;
20245;SDS011;10281;54.406;18.556;2023-04-16T06:45:01;11.83;;;9.00;;
20245;SDS011;10281;54.406;18.556;2023-04-16T06:47:28;10.57;;;8.80;;
20245;SDS011;10281;54.406;18.556;2023-04-16T06:49:55;11.27;;;8.30;;
20245;SDS011;10281;54.406;18.556;2023-04-16T06:52:22;11.60;;;8.70;;
20245;SDS011;10281;54.406;18.556;2023-04-16T06:54:48;12.10;;;9.00;;
20245;SDS011;10281;54.406;18.556;2023-04-16T06:57:15;11.23;;;9.10;;
20245;SDS011;10281;54.406;18.556;2023-04-16T06:59:42;11.57;;;8.93;;
20245;SDS011;10281;54.406;18.556;2023-04-16T07:02:09;10.50;;;8.53;;
20245;SDS011;10281;54.406;18.556;2023-04-16T07:04:36;11.37;;;8.23;;
20245;SDS011;10281;54.406;18.556;2023-04-16T07:07:03;10.37;;;8.47;;
20245;SDS011;10281;54.406;18.556;2023-04-16T07:09:29;11.73;;;8.87;;
20245;SDS011;10281;54.406;18.556;2023-04-16T07:11:56;10.60;;;7.67;;
20245;SDS011;10281;54.406;18.556;2023-04-16T07:14:22;11.37;;;7.93;;
20245;SDS011;10281;54.406;18.556;2023-04-16T07:16:49;9.33;;;8.07;;
20245;SDS011;10281;54.406;18.556;2023-04-16T07:19:16;9.80;;;8.63;;
20245;SDS011;10281;54.406;18.556;2023-04-16T07:21:42;10.67;;;7.60;;
20245;SDS011;10281;54.406;18.556;2023-04-16T07:24:09;10.23;;;8.20;;
20245;SDS011;10281;54.406;18.556;2023-04-16T07:26:36;8.80;;;7.73;;
20245;SDS011;10281;54.406;18.556;2023-04-16T07:29:03;12.67;;;8.10;;
20245;SDS011;10281;54.406;18.556;2023-04-16T07:31:30;10.60;;;8.67;;
20245;SDS011;10281;54.406;18.556;2023-04-16T07:33:57;11.03;;;7.73;;
20245;SDS011;10281;54.406;18.556;2023-04-16T07:36:24;8.93;;;8.07;;
20245;SDS011;10281;54.406;18.556;2023-04-16T07:38:52;9.80;;;8.37;;
20245;SDS011;10281;54.406;18.556;2023-04-16T07:41:18;9.10;;;7.67;;
20245;SDS011;10281;54.406;18.556;2023-04-16T07:43:45;10.60;;;9.40;;
20245;SDS011;10281;54.406;18.556;2023-04-16T07:46:12;9.40;;;8.47;;
20245;SDS011;10281;54.406;18.556;2023-04-16T07:48:39;8.87;;;7.57;;
20245;SDS011;10281;54.406;18.556;2023-04-16T07:51:05;11.57;;;8.67;;
20245;SDS011;10281;54.406;18.556;2023-04-16T07:53:32;8.53;;;7.33;;
20245;SDS011;10281;54.406;18.556;2023-04-16T07:55:59;9.67;;;7.67;;
20245;SDS011;10281;54.406;18.556;2023-04-16T07:58:25;10.40;;;8.70;;
20245;SDS011;10281;54.406;18.556;2023-04-16T08:00:52;11.73;;;8.67;;
20245;SDS011;10281;54.406;18.556;2023-04-16T08:03:19;12.63;;;8.23;;
20245;SDS011;10281;54.406;18.556;2023-04-16T08:05:45;8.60;;;7.70;;
20245;SDS011;10281;54.406;18.556;2023-04-16T08:08:12;10.23;;;8.20;;
20245;SDS011;10281;54.406;18.556;2023-04-16T08:10:39;8.30;;;7.50;;
20245;SDS011;10281;54.406;18.556;2023-04-16T08:13:06;8.30;;;7.30;;
20245;SDS011;10281;54.406;18.556;2023-04-16T08:15:32;8.70;;;7.20;;
20245;SDS011;10281;54.406;18.556;2023-04-16T08:17:59;8.40;;;6.63;;
20245;SDS011;10281;54.406;18.556;2023-04-16T08:20:26;9.63;;;7.90;;
20245;SDS011;10281;54.406;18.556;2023-04-16T08:22:53;7.77;;;7.00;;
20245;SDS011;10281;54.406;18.556;2023-04-16T08:25:19;23.00;;;14.63;;
20245;SDS011;10281;54.406;18.556;2023-04-16T08:27:48;8.77;;;7.67;;
20245;SDS011;10281;54.406;18.556;2023-04-16T08:30:15;8.63;;;7.00;;
20245;SDS011;10281;54.406;18.556;2023-04-16T08:32:41;10.43;;;6.27;;
20245;SDS011;10281;54.406;18.556;2023-04-16T08:35:08;6.63;;;5.97;;
20245;SDS011;10281;54.406;18.556;2023-04-16T08:37:35;7.20;;;6.50;;
20245;SDS011;10281;54.406;18.556;2023-04-16T08:40:03;10.57;;;7.97;;
20245;SDS011;10281;54.406;18.556;2023-04-16T08:42:32;9.23;;;6.93;;
20245;SDS011;10281;54.406;18.556;2023-04-16T08:45:06;7.93;;;7.13;;
20245;SDS011;10281;54.406;18.556;2023-04-16T08:47:35;6.77;;;5.87;;
20245;SDS011;10281;54.406;18.556;2023-04-16T08:50:02;6.67;;;5.80;;
20245;SDS011;10281;54.406;18.556;2023-04-16T08:52:30;6.43;;;5.10;;
20245;SDS011;10281;54.406;18.556;2023-04-16T08:55:02;6.80;;;5.13;;
20245;SDS011;10281;54.406;18.556;2023-04-16T08:57:36;6.50;;;5.50;;
20245;SDS011;10281;54.406;18.556;2023-04-16T09:00:01;5.53;;;5.00;;
20245;SDS011;10281;54.406;18.556;2023-04-16T09:02:29;5.43;;;4.87;;
20245;SDS011;10281;54.406;18.556;2023-04-16T09:04:57;5.63;;;5.13;;
20245;SDS011;10281;54.406;18.556;2023-04-16T09:07:26;5.40;;;4.90;;
20245;SDS011;10281;54.406;18.556;2023-04-16T09:09:54;5.00;;;4.50;;
20245;SDS011;10281;54.406;18.556;2023-04-16T09:12:22;6.23;;;5.03;;
20245;SDS011;10281;54.406;18.556;2023-04-16T09:14:50;5.13;;;4.50;;
20245;SDS011;10281;54.406;18.556;2023-04-16T09:17:17;4.87;;;4.43;;
20245;SDS011;10281;54.406;18.556;2023-04-16T09:19:44;4.90;;;3.90;;
20245;SDS011;10281;54.406;18.556;2023-04-16T09:22:11;6.67;;;4.80;;
20245;SDS011;10281;54.406;18.556;2023-04-16T09:24:38;3.13;;;2.83;;
20245;SDS011;10281;54.406;18.556;2023-04-16T09:27:05;5.00;;;4.20;;
20245;SDS011;10281;54.406;18.556;2023-04-16T09:29:34;4.37;;;3.83;;
20245;SDS011;10281;54.406;18.556;2023-04-16T09:32:05;4.33;;;3.93;;
20245;SDS011;10281;54.406;18.556;2023-04-16T09:34:33;3.70;;;3.40;;
20245;SDS011;10281;54.406;18.556;2023-04-16T09:37:13;3.67;;;3.20;;
20245;SDS011;10281;54.406;18.556;2023-04-16T09:39:42;3.33;;;2.93;;
20245;SDS011;10281;54.406;18.556;2023-04-16T09:42:10;2.67;;;2.47;;
20245;SDS011;10281;54.406;18.556;2023-04-16T09:44:37;3.87;;;3.33;;
20245;SDS011;10281;54.406;18.556;2023-04-16T09:47:06;4.27;;;3.87;;
20245;SDS011;10281;54.406;18.556;2023-04-16T09:49:36;4.23;;;3.67;;
20245;SDS011;10281;54.406;18.556;2023-04-16T09:52:08;5.33;;;4.83;;
20245;SDS011;10281;54.406;18.556;2023-04-16T09:54:46;4.63;;;4.23;;
20245;SDS011;10281;54.406;18.556;2023-04-16T09:57:20;4.50;;;4.10;;
20245;SDS011;10281;54.406;18.556;2023-04-16T09:59:51;6.60;;;5.23;;
20245;SDS011;10281;54.406;18.556;2023-04-16T10:02:26;4.50;;;4.10;;
20245;SDS011;10281;54.406;18.556;2023-04-16T10:04:53;4.40;;;4.00;;
20245;SDS011;10281;54.406;18.556;2023-04-16T10:07:20;4.90;;;4.40;;
20245;SDS011;10281;54.406;18.556;2023-04-16T10:09:47;5.33;;;4.70;;
20245;SDS011;10281;54.406;18.556;2023-04-16T10:12:15;5.23;;;4.47;;
20245;SDS011;10281;54.406;18.556;2023-04-16T10:14:41;4.83;;;4.40;;
20245;SDS011;10281;54.406;18.556;2023-04-16T10:17:08;5.70;;;4.90;;
20245;SDS011;10281;54.406;18.556;2023-04-16T10:19:35;6.13;;;4.97;;
20245;SDS011;10281;54.406;18.556;2023-04-16T10:22:03;5.27;;;4.63;;
20245;SDS011;10281;54.406;18.556;2023-04-16T10:24:30;5.00;;;4.50;;
20245;SDS011;10281;54.406;18.556;2023-04-16T10:26:58;4.60;;;4.10;;
20245;SDS011;10281;54.406;18.556;2023-04-16T10:29:26;5.30;;;4.80;;
20245;SDS011;10281;54.406;18.556;2023-04-16T10:31:55;6.20;;;5.60;;
20245;SDS011;10281;54.406;18.556;2023-04-16T10:34:23;5.07;;;4.57;;
20245;SDS011;10281;54.406;18.556;2023-04-16T10:36:50;6.20;;;5.10;;
20245;SDS011;10281;54.406;18.556;2023-04-16T10:39:19;4.90;;;4.47;;
20245;SDS011;10281;54.406;18.556;2023-04-16T10:41:48;4.53;;;4.10;;
20245;SDS011;10281;54.406;18.556;2023-04-16T10:44:17;6.83;;;4.67;;
20245;SDS011;10281;54.406;18.556;2023-04-16T10:46:45;6.27;;;5.10;;
20245;SDS011;10281;54.406;18.556;2023-04-16T10:49:18;5.80;;;5.20;;
20245;SDS011;10281;54.406;18.556;2023-04-16T10:52:09;6.10;;;4.93;;
20245;SDS011;10281;54.406;18.556;2023-04-16T10:54:41;5.43;;;4.67;;
20245;SDS011;10281;54.406;18.556;2023-04-16T10:57:08;4.80;;;4.30;;
20245;SDS011;10281;54.406;18.556;2023-04-16T10:59:37;6.17;;;4.80;;
20245;SDS011;10281;54.406;18.556;2023-04-16T11:02:08;7.00;;;4.10;;
20245;SDS011;10281;54.406;18.556;2023-04-16T11:04:41;5.30;;;3.97;;
20245;SDS011;10281;54.406;18.556;2023-04-16T11:07:15;5.87;;;4.97;;
20245;SDS011;10281;54.406;18.556;2023-04-16T11:09:45;7.13;;;5.00;;
20245;SDS011;10281;54.406;18.556;2023-04-16T11:12:24;5.70;;;5.10;;
20245;SDS011;10281;54.406;18.556;2023-04-16T11:14:54;5.60;;;5.00;;
20245;SDS011;10281;54.406;18.556;2023-04-16T11:17:30;5.53;;;5.03;;
20245;SDS011;10281;54.406;18.556;2023-04-16T11:20:00;6.13;;;5.17;;
20245;SDS011;10281;54.406;18.556;2023-04-16T11:22:27;5.47;;;4.60;;
20245;SDS011;10281;54.406;18.556;2023-04-16T11:24:54;6.47;;;4.97;;
20245;SDS011;10281;54.406;18.556;2023-04-16T11:27:22;5.50;;;5.00;;
20245;SDS011;10281;54.406;18.556;2023-04-16T11:29:56;5.40;;;4.80;;
20245;SDS011;10281;54.406;18.556;2023-04-16T11:32:24;5.70;;;4.87;;
20245;SDS011;10281;54.406;18.556;2023-04-16T11:34:51;5.93;;;5.33;;
20245;SDS011;10281;54.406;18.556;2023-04-16T11:37:18;5.23;;;4.73;;
20245;SDS011;10281;54.406;18.556;2023-04-16T11:39:48;6.37;;;5.17;;
20245;SDS011;10281;54.406;18.556;2023-04-16T11:42:19;6.00;;;5.40;;
20245;SDS011;10281;54.406;18.556;2023-04-16T11:44:51;5.60;;;5.10;;
20245;SDS011;10281;54.406;18.556;2023-04-16T11:47:19;5.80;;;5.07;;
20245;SDS011;10281;54.406;18.556;2023-04-16T11:49:47;6.83;;;5.63;;
20245;SDS011;10281;54.406;18.556;2023-04-16T11:52:14;7.60;;;6.83;;
20245;SDS011;10281;54.406;18.556;2023-04-16T11:54:49;8.60;;;7.80;;
20245;SDS011;10281;54.406;18.556;2023-04-16T11:57:22;11.80;;;10.60;;
20245;SDS011;10281;54.406;18.556;2023-04-16T11:59:51;6.27;;;5.67;;
20245;SDS011;10281;54.406;18.556;2023-04-16T12:02:32;8.37;;;5.90;;
20245;SDS011;10281;54.406;18.556;2023-04-16T12:04:52;7.27;;;6.20;;
20245;SDS011;10281;54.406;18.556;2023-04-16T12:07:19;7.10;;;6.40;;
20245;SDS011;10281;54.406;18.556;2023-04-16T12:09:45;8.03;;;7.13;;
20245;SDS011;10281;54.406;18.556;2023-04-16T12:14:50;11.93;;;10.37;;
20245;SDS011;10281;54.406;18.556;2023-04-16T12:17:18;12.10;;;10.70;;
20245;SDS011;10281;54.406;18.556;2023-04-16T12:19:47;10.20;;;8.40;;
20245;SDS011;10281;54.406;18.556;2023-04-16T12:22:16;10.47;;;7.33;;
20245;SDS011;10281;54.406;18.556;2023-04-16T12:24:45;8.70;;;7.53;;
20245;SDS011;10281;54.406;18.556;2023-04-16T12:27:12;8.40;;;7.60;;
20245;SDS011;10281;54.406;18.556;2023-04-16T12:29:40;8.80;;;7.97;;
20245;SDS011;10281;54.406;18.556;2023-04-16T12:32:19;8.83;;;7.93;;
20245;SDS011;10281;54.406;18.556;2023-04-16T12:34:49;9.50;;;8.50;;
20245;SDS011;10281;54.406;18.556;2023-04-16T12:37:16;10.07;;;9.07;;
20245;SDS011;10281;54.406;18.556;2023-04-16T12:39:43;10.33;;;8.63;;
20245;SDS011;10281;54.406;18.556;2023-04-16T12:42:09;8.10;;;7.30;;
20245;SDS011;10281;54.406;18.556;2023-04-16T12:44:37;9.20;;;8.30;;
20245;SDS011;10281;54.406;18.556;2023-04-16T12:47:03;9.30;;;8.30;;
20245;SDS011;10281;54.406;18.556;2023-04-16T12:49:30;9.37;;;8.40;;
20245;SDS011;10281;54.406;18.556;2023-04-16T12:51:57;8.90;;;7.83;;
20245;SDS011;10281;54.406;18.556;2023-04-16T12:54:23;9.00;;;8.10;;
20245;SDS011;10281;54.406;18.556;2023-04-16T12:56:52;10.47;;;7.87;;
20245;SDS011;10281;54.406;18.556;2023-04-16T12:59:19;7.60;;;6.80;;
20245;SDS011;10281;54.406;18.556;2023-04-16T13:01:45;6.97;;;6.37;;
20245;SDS011;10281;54.406;18.556;2023-04-16T13:04:12;6.60;;;5.90;;
20245;SDS011;10281;54.406;18.556;2023-04-16T13:06:39;5.40;;;4.90;;
20245;SDS011;10281;54.406;18.556;2023-04-16T13:09:06;6.03;;;5.43;;
20245;SDS011;10281;54.406;18.556;2023-04-16T13:11:32;7.93;;;6.07;;
20245;SDS011;10281;54.406;18.556;2023-04-16T13:13:59;5.93;;;5.33;;
20245;SDS011;10281;54.406;18.556;2023-04-16T13:16:25;6.43;;;5.83;;
20245;SDS011;10281;54.406;18.556;2023-04-16T13:18:52;7.70;;;6.90;;
20245;SDS011;10281;54.406;18.556;2023-04-16T13:21:19;7.50;;;6.07;;
20245;SDS011;10281;54.406;18.556;2023-04-16T13:23:46;9.33;;;6.60;;
20245;SDS011;10281;54.406;18.556;2023-04-16T13:26:12;6.97;;;6.27;;
20245;SDS011;10281;54.406;18.556;2023-04-16T13:28:40;9.30;;;6.83;;
20245;SDS011;10281;54.406;18.556;2023-04-16T13:31:07;7.33;;;6.47;;
20245;SDS011;10281;54.406;18.556;2023-04-16T13:33:33;8.83;;;6.67;;
20245;SDS011;10281;54.406;18.556;2023-04-16T13:36:00;7.03;;;6.30;;
20245;SDS011;10281;54.406;18.556;2023-04-16T13:38:27;10.70;;;8.63;;
20245;SDS011;10281;54.406;18.556;2023-04-16T13:40:53;7.20;;;6.50;;
20245;SDS011;10281;54.406;18.556;2023-04-16T13:43:20;7.80;;;7.00;;
20245;SDS011;10281;54.406;18.556;2023-04-16T13:45:47;9.30;;;8.20;;
20245;SDS011;10281;54.406;18.556;2023-04-16T13:48:14;9.77;;;8.73;;
20245;SDS011;10281;54.406;18.556;2023-04-16T13:50:42;9.87;;;8.80;;
20245;SDS011;10281;54.406;18.556;2023-04-16T13:53:08;11.03;;;8.43;;
20245;SDS011;10281;54.406;18.556;2023-04-16T13:55:35;10.60;;;9.20;;
20245;SDS011;10281;54.406;18.556;2023-04-16T13:58:02;12.10;;;8.83;;
20245;SDS011;10281;54.406;18.556;2023-04-16T14:00:29;10.47;;;8.70;;
20245;SDS011;10281;54.406;18.556;2023-04-16T14:02:55;9.70;;;8.60;;
20245;SDS011;10281;54.406;18.556;2023-04-16T14:05:22;10.47;;;9.37;;
20245;SDS011;10281;54.406;18.556;2023-04-16T14:07:49;13.33;;;9.13;;
20245;SDS011;10281;54.406;18.556;2023-04-16T14:10:16;12.13;;;9.13;;
20245;SDS011;10281;54.406;18.556;2023-04-16T14:12:43;9.50;;;8.50;;
20245;SDS011;10281;54.406;18.556;2023-04-16T14:15:10;9.03;;;8.13;;
20245;SDS011;10281;54.406;18.556;2023-04-16T14:17:40;11.17;;;8.10;;
20245;SDS011;10281;54.406;18.556;2023-04-16T14:20:09;11.93;;;9.13;;
20245;SDS011;10281;54.406;18.556;2023-04-16T14:22:38;11.43;;;9.57;;
20245;SDS011;10281;54.406;18.556;2023-04-16T14:25:07;10.67;;;9.17;;
20245;SDS011;10281;54.406;18.556;2023-04-16T14:27:34;10.37;;;9.10;;
20245;SDS011;10281;54.406;18.556;2023-04-16T14:30:01;12.23;;;9.87;;
20245;SDS011;10281;54.406;18.556;2023-04-16T14:32:27;10.73;;;8.63;;